Terminal Aerodrome Forecast
Issued by NWS Corpus Christi, TX

Home | Current Version | Previous Version | Text Only | Print | Product List | Glossary On
Versions: 1 2 3 4 5 6 7 8 9 10 11 12 13 14 15
000
FTUS44 KCRP 251100
TAFVCT
TAF
KVCT 251130Z 2512/2612 19006KT 4SM BR FEW010
      TEMPO 2512/2514 00000KT 2SM BR
     FM251800 16009KT P6SM SCT045 BKN250
     FM252300 16008KT P6SM SCT250=

USA.gov is the U.S. government's official web portal to all federal, state and local government web resources and services.